createdAt,value
2019-03-17T00:00:31.534Z,61.72
2019-03-17T00:03:02.153Z,61.76
2019-03-17T00:05:33.123Z,60.99
2019-03-17T00:08:05.542Z,60.96
2019-03-17T00:10:36.354Z,61.01
2019-03-17T00:13:07.040Z,61.01
2019-03-17T00:15:37.896Z,60.69
2019-03-17T00:18:08.563Z,60.56
2019-03-17T00:20:39.229Z,59.34
2019-03-17T00:23:10.183Z,59.34
2019-03-17T00:25:41.144Z,59.00
2019-03-17T00:28:11.869Z,59.01
2019-03-17T00:30:42.409Z,63.06
2019-03-17T00:33:14.136Z,63.06
2019-03-17T00:35:44.932Z,63.79
2019-03-17T00:38:16.061Z,64.26
2019-03-17T00:40:46.961Z,65.29
2019-03-17T00:43:17.522Z,65.55
2019-03-17T00:45:48.028Z,65.42
2019-03-17T00:48:19.022Z,65.86
2019-03-17T00:50:49.917Z,65.86
2019-03-17T00:53:20.768Z,65.62
2019-03-17T00:55:51.491Z,65.38
2019-03-17T00:58:22.343Z,63.99
2019-03-17T01:00:54.358Z,62.89
2019-03-17T01:03:25.081Z,62.89
2019-03-17T01:05:56.012Z,61.85
2019-03-17T01:08:27.803Z,61.70
2019-03-17T01:10:58.494Z,61.70
2019-03-17T01:13:29.131Z,63.31
2019-03-17T01:15:59.720Z,63.96
2019-03-17T01:18:31.748Z,64.36
2019-03-17T01:21:02.319Z,65.10
2019-03-17T01:23:33.204Z,65.20
2019-03-17T01:26:04.267Z,64.97
2019-03-17T01:28:34.752Z,64.97
2019-03-17T01:31:05.340Z,64.00
2019-03-17T01:33:36.224Z,63.70
2019-03-17T01:36:07.164Z,63.62
2019-03-17T01:38:37.893Z,63.62
2019-03-17T01:41:08.509Z,62.82
2019-03-17T01:43:39.157Z,64.01
2019-03-17T01:46:09.962Z,64.60
2019-03-17T01:48:40.953Z,64.60
2019-03-17T01:51:11.693Z,65.68
2019-03-17T01:53:42.401Z,66.02
2019-03-17T01:56:13.209Z,65.16
2019-03-17T01:58:44.163Z,65.16
2019-03-17T02:01:14.906Z,65.64
2019-03-17T02:03:45.731Z,64.54
2019-03-17T02:06:16.378Z,64.54
2019-03-17T02:08:48.028Z,65.22
2019-03-17T02:11:19.093Z,64.61
2019-03-17T02:13:49.571Z,65.03
2019-03-17T02:16:20.251Z,65.03
2019-03-17T02:18:51.168Z,64.56
2019-03-17T02:21:21.977Z,63.88
2019-03-17T02:23:52.741Z,64.01
2019-03-17T02:26:23.594Z,63.41
2019-03-17T02:28:54.273Z,63.41
2019-03-17T02:31:25.005Z,62.80
2019-03-17T02:33:55.606Z,61.90
2019-03-17T02:36:26.236Z,62.21
2019-03-17T02:38:57.003Z,62.21
2019-03-17T02:41:27.854Z,60.22
2019-03-17T02:43:58.765Z,60.22
2019-03-17T02:46:31.109Z,59.34
2019-03-17T02:49:02.319Z,58.24
2019-03-17T02:51:33.033Z,56.67
2019-03-17T02:54:03.841Z,56.67
2019-03-17T02:56:35.881Z,56.48
2019-03-17T02:59:06.777Z,56.41
2019-03-17T03:01:37.588Z,57.10
2019-03-17T03:04:08.445Z,57.50
2019-03-17T03:06:40.954Z,57.19
2019-03-17T03:09:13.030Z,57.28
2019-03-17T03:11:43.795Z,57.97
2019-03-17T03:14:14.511Z,57.51
2019-03-17T03:16:45.293Z,57.72
2019-03-17T03:19:16.097Z,57.72
2019-03-17T03:21:46.935Z,58.30
2019-03-17T03:24:18.189Z,58.22
2019-03-17T03:26:49.182Z,59.28
2019-03-17T03:29:19.943Z,59.08
2019-03-17T03:31:52.373Z,59.08
2019-03-17T03:34:22.940Z,59.62
2019-03-17T03:36:53.222Z,60.33
2019-03-17T03:39:23.982Z,60.72
2019-03-17T03:41:54.696Z,64.22
2019-03-17T03:44:25.517Z,66.08
2019-03-17T03:46:56.363Z,67.09
2019-03-17T03:49:26.928Z,67.24
2019-03-17T03:51:57.804Z,65.88
2019-03-17T03:54:28.920Z,65.26
2019-03-17T03:57:00.974Z,64.61
2019-03-17T03:59:31.654Z,63.88
2019-03-17T04:02:02.615Z,63.61
2019-03-17T04:04:33.213Z,63.24
2019-03-17T04:07:04.012Z,61.87
2019-03-17T04:09:34.951Z,61.20
2019-03-17T04:12:06.786Z,61.20
2019-03-17T04:14:38.847Z,60.72
2019-03-17T04:17:09.888Z,60.63
2019-03-17T04:19:40.729Z,59.81
2019-03-17T04:22:11.828Z,59.81
2019-03-17T04:24:44.039Z,59.67
2019-03-17T04:27:15.951Z,59.78
2019-03-17T04:29:46.546Z,59.54
2019-03-17T04:32:17.409Z,59.54
2019-03-17T04:34:48.097Z,59.12
2019-03-17T04:37:18.624Z,58.75
2019-03-17T04:39:49.374Z,58.18
2019-03-17T04:42:19.919Z,58.18
2019-03-17T04:44:50.883Z,57.95
2019-03-17T04:47:21.767Z,57.39
2019-03-17T04:49:52.294Z,57.19
2019-03-17T04:52:22.940Z,57.27
2019-03-17T04:54:53.874Z,57.27
2019-03-17T04:57:24.516Z,56.88
2019-03-17T04:59:55.278Z,56.75
2019-03-17T05:02:27.199Z,56.75
2019-03-17T05:04:57.850Z,56.67
2019-03-17T05:07:28.684Z,56.87
2019-03-17T05:09:59.614Z,57.34
2019-03-17T05:12:30.267Z,57.15
2019-03-17T05:15:01.173Z,56.45
2019-03-17T05:17:31.946Z,54.91
2019-03-17T05:20:02.820Z,52.17
2019-03-17T05:22:33.635Z,48.21
2019-03-17T05:25:04.477Z,46.39
2019-03-17T05:27:35.489Z,45.64
2019-03-17T05:30:06.468Z,45.00
2019-03-17T05:32:37.326Z,45.17
2019-03-17T05:35:08.365Z,44.67
2019-03-17T05:37:40.212Z,44.90
2019-03-17T05:40:11.395Z,45.49
2019-03-17T05:42:42.504Z,45.66
2019-03-17T05:45:14.511Z,45.61
2019-03-17T05:47:45.533Z,45.57
2019-03-17T05:50:15.947Z,45.64
2019-03-17T05:52:47.667Z,45.84
2019-03-17T05:55:18.411Z,45.49
2019-03-17T05:57:50.301Z,45.88
2019-03-17T06:00:21.165Z,45.76
2019-03-17T06:02:52.422Z,45.24
2019-03-17T06:05:23.182Z,44.83
2019-03-17T06:07:54.247Z,44.96
2019-03-17T06:10:25.166Z,44.68
2019-03-17T06:12:55.856Z,44.61
2019-03-17T06:15:27.607Z,44.93
2019-03-17T06:17:58.416Z,45.00
2019-03-17T06:20:29.144Z,44.48
2019-03-17T06:22:59.878Z,44.46
2019-03-17T06:25:30.886Z,44.46
2019-03-17T06:28:01.727Z,44.70
2019-03-17T06:30:32.522Z,45.12
2019-03-17T06:33:03.337Z,45.18
2019-03-17T06:35:33.923Z,45.55
2019-03-17T06:38:06.754Z,45.70
2019-03-17T06:40:37.516Z,45.10
2019-03-17T06:43:08.553Z,45.17
2019-03-17T06:45:40.580Z,44.63
2019-03-17T06:48:11.500Z,44.52
2019-03-17T06:50:41.993Z,44.20
2019-03-17T06:53:12.754Z,43.95
2019-03-17T06:55:43.647Z,43.60
2019-03-17T06:58:14.635Z,43.10
2019-03-17T07:00:45.532Z,42.11
2019-03-17T07:03:16.214Z,41.58
2019-03-17T07:05:46.803Z,41.71
2019-03-17T07:08:17.780Z,41.66
2019-03-17T07:10:48.324Z,42.12
2019-03-17T07:13:21.179Z,42.79
2019-03-17T07:15:51.892Z,43.97
2019-03-17T07:18:22.876Z,44.18
2019-03-17T07:20:53.373Z,44.43
2019-03-17T07:23:24.033Z,44.52
2019-03-17T07:25:54.553Z,44.80
2019-03-17T07:28:24.775Z,45.17
2019-03-17T07:30:55.727Z,45.22
2019-03-17T07:33:26.048Z,45.48
2019-03-17T07:35:57.608Z,45.61
2019-03-17T07:38:28.145Z,46.14
2019-03-17T07:40:58.455Z,46.46
2019-03-17T07:43:28.776Z,46.02
2019-03-17T07:45:59.348Z,46.02
2019-03-17T07:48:29.664Z,46.04
2019-03-17T07:50:59.967Z,46.27
2019-03-17T07:53:30.638Z,46.73
2019-03-17T07:56:01.123Z,45.90
2019-03-17T07:58:31.632Z,46.36
2019-03-17T08:01:02.231Z,47.12
2019-03-17T08:03:32.946Z,48.63
2019-03-17T08:06:03.571Z,49.93
2019-03-17T08:08:35.326Z,50.04
2019-03-17T08:11:06.774Z,50.02
2019-03-17T08:13:37.543Z,49.93
2019-03-17T08:16:08.812Z,49.62
2019-03-17T08:18:39.295Z,49.43
2019-03-17T08:21:09.832Z,48.73
2019-03-17T08:23:40.969Z,49.00
2019-03-17T08:26:11.481Z,49.36
2019-03-17T08:28:42.852Z,49.13
2019-03-17T08:31:13.450Z,49.68
2019-03-17T08:33:44.250Z,50.91
2019-03-17T08:36:14.934Z,50.72
2019-03-17T08:38:45.722Z,51.03
2019-03-17T08:41:16.462Z,50.83
2019-03-17T08:43:54.159Z,50.65
2019-03-17T08:46:19.331Z,49.94
2019-03-17T08:48:50.116Z,49.59
2019-03-17T08:51:21.024Z,49.82
2019-03-17T08:53:52.875Z,50.05
2019-03-17T08:56:23.201Z,48.88
2019-03-17T08:58:53.671Z,48.18
2019-03-17T09:01:24.268Z,48.18
2019-03-17T09:03:54.778Z,48.97
2019-03-17T09:06:25.518Z,48.95
2019-03-17T09:08:56.271Z,49.29
2019-03-17T09:11:26.707Z,50.11
2019-03-17T09:13:57.209Z,50.62
2019-03-17T09:16:27.721Z,50.95
2019-03-17T09:18:57.989Z,51.62
2019-03-17T09:21:28.580Z,52.36
2019-03-17T09:23:59.472Z,51.29
2019-03-17T09:26:30.118Z,51.37
2019-03-17T09:29:00.772Z,51.78
2019-03-17T09:31:33.027Z,50.62
2019-03-17T09:34:03.520Z,51.40
2019-03-17T09:36:34.801Z,51.87
2019-03-17T09:39:05.526Z,51.46
2019-03-17T09:41:36.483Z,51.36
2019-03-17T09:44:07.228Z,50.83
2019-03-17T09:46:37.740Z,50.78
2019-03-17T09:49:08.110Z,50.83
2019-03-17T09:51:38.935Z,50.86
2019-03-17T09:54:09.569Z,51.10
2019-03-17T09:56:40.628Z,51.40
2019-03-17T09:59:10.998Z,51.78
2019-03-17T10:01:42.388Z,52.34
2019-03-17T10:04:12.769Z,51.89
2019-03-17T10:06:44.517Z,50.44
2019-03-17T10:09:14.920Z,51.07
2019-03-17T10:11:45.565Z,51.40
2019-03-17T10:14:15.802Z,52.20
2019-03-17T10:16:46.504Z,52.44
2019-03-17T10:19:17.329Z,51.47
2019-03-17T10:21:47.876Z,51.11
2019-03-17T10:24:18.347Z,50.70
2019-03-17T10:26:49.429Z,51.13
2019-03-17T10:29:19.803Z,51.08
2019-03-17T10:31:51.922Z,51.25
2019-03-17T10:34:22.392Z,51.99
2019-03-17T10:36:53.658Z,51.56
2019-03-17T10:39:24.600Z,52.25
2019-03-17T10:42:01.120Z,52.57
2019-03-17T10:44:31.599Z,52.57
2019-03-17T10:47:02.115Z,53.24
2019-03-17T10:49:32.708Z,53.77
2019-03-17T10:52:03.278Z,53.95
2019-03-17T10:54:33.649Z,53.41
2019-03-17T10:57:04.202Z,53.69
2019-03-17T10:59:34.892Z,53.58
2019-03-17T11:02:05.412Z,54.14
2019-03-17T11:04:36.090Z,54.31
2019-03-17T11:07:27.191Z,55.02
2019-03-17T11:09:57.580Z,55.27
2019-03-17T11:12:32.140Z,55.29
2019-03-17T11:15:03.978Z,55.63
2019-03-17T11:17:34.396Z,56.27
2019-03-17T11:20:06.637Z,56.29
2019-03-17T11:22:37.133Z,56.17
2019-03-17T11:25:08.162Z,55.53
2019-03-17T11:27:39.327Z,55.13
2019-03-17T11:30:11.075Z,55.77
2019-03-17T11:32:42.722Z,55.41
2019-03-17T11:35:13.893Z,55.87
2019-03-17T11:37:44.464Z,55.83
2019-03-17T11:40:16.548Z,56.15
2019-03-17T11:42:49.848Z,56.40
2019-03-17T11:45:20.616Z,57.08
2019-03-17T11:47:52.097Z,56.14
2019-03-17T11:50:23.243Z,56.14
2019-03-17T11:52:53.811Z,56.21
2019-03-17T11:55:24.375Z,56.33
2019-03-17T11:57:55.059Z,56.49
2019-03-17T12:00:25.564Z,56.07
2019-03-17T12:02:56.149Z,55.47
2019-03-17T12:05:27.136Z,55.10
2019-03-17T12:07:57.624Z,55.18
2019-03-17T12:10:29.012Z,54.54
2019-03-17T12:12:59.955Z,54.50
2019-03-17T12:15:31.824Z,54.91
2019-03-17T12:18:04.297Z,54.79
2019-03-17T12:20:35.079Z,55.25
2019-03-17T12:23:06.597Z,55.02
2019-03-17T12:25:37.445Z,54.91
2019-03-17T12:28:08.298Z,55.28
2019-03-17T12:30:38.730Z,55.09
2019-03-17T12:33:09.421Z,55.45
2019-03-17T12:35:40.463Z,55.62
2019-03-17T12:38:12.508Z,54.65
2019-03-17T12:40:45.096Z,55.07
2019-03-17T12:43:15.605Z,55.08
2019-03-17T12:45:47.353Z,54.80
2019-03-17T12:48:18.271Z,55.47
2019-03-17T12:50:48.932Z,55.50
2019-03-17T12:53:19.454Z,55.81
2019-03-17T12:55:49.829Z,56.41
2019-03-17T12:58:20.195Z,56.96
2019-03-17T13:00:53.378Z,57.01
2019-03-17T13:03:24.117Z,57.69
2019-03-17T13:05:54.536Z,57.85
2019-03-17T13:08:25.803Z,58.00
2019-03-17T13:10:56.759Z,57.93
2019-03-17T13:13:28.851Z,58.76
2019-03-17T13:16:00.224Z,57.46
2019-03-17T13:18:31.208Z,57.88
2019-03-17T13:21:01.735Z,58.15
2019-03-17T13:23:32.958Z,58.17
2019-03-17T13:26:03.974Z,58.82
2019-03-17T13:28:35.526Z,58.52
2019-03-17T13:31:06.367Z,58.37
2019-03-17T13:33:37.198Z,59.40
2019-03-17T13:36:08.415Z,59.19
2019-03-17T13:38:38.961Z,59.15
2019-03-17T13:41:09.905Z,59.37
2019-03-17T13:43:43.765Z,58.61
2019-03-17T13:46:15.627Z,58.92
2019-03-17T13:48:46.145Z,59.13
2019-03-17T13:51:17.581Z,58.94
2019-03-17T13:53:47.733Z,59.32
2019-03-17T13:56:18.086Z,59.62
2019-03-17T13:58:49.402Z,59.74
2019-03-17T14:01:21.763Z,59.64
2019-03-17T14:03:54.775Z,59.54
2019-03-17T14:06:25.402Z,58.76
2019-03-17T14:08:55.763Z,58.07
2019-03-17T14:11:27.846Z,58.30
2019-03-17T14:14:01.194Z,58.05
2019-03-17T14:16:31.880Z,58.26
2019-03-17T14:19:02.707Z,58.58
2019-03-17T14:21:33.498Z,58.86
2019-03-17T14:24:04.308Z,58.82
2019-03-17T14:26:34.772Z,59.14
2019-03-17T14:29:05.778Z,59.40
2019-03-17T14:31:36.192Z,60.04
2019-03-17T14:34:06.605Z,60.49
2019-03-17T14:36:37.300Z,59.87
2019-03-17T14:39:08.872Z,60.05
2019-03-17T14:41:42.194Z,61.02
2019-03-17T14:44:12.810Z,61.16
2019-03-17T14:46:43.857Z,61.68
2019-03-17T14:49:14.473Z,61.58
2019-03-17T14:51:45.145Z,62.45
2019-03-17T14:54:17.295Z,63.00
2019-03-17T14:56:48.335Z,62.97
2019-03-17T14:59:20.589Z,62.73
2019-03-17T15:01:51.530Z,62.89
2019-03-17T15:04:21.770Z,63.04
2019-03-17T15:06:53.556Z,63.26
2019-03-17T15:09:24.700Z,63.83
2019-03-17T15:11:55.353Z,63.69
2019-03-17T15:14:26.035Z,63.25
2019-03-17T15:16:56.928Z,63.24
2019-03-17T15:19:27.931Z,63.36
2019-03-17T15:21:58.633Z,63.13
2019-03-17T15:24:31.722Z,63.14
2019-03-17T15:27:04.352Z,63.04
2019-03-17T15:29:35.885Z,63.14
2019-03-17T15:32:06.548Z,63.02
2019-03-17T15:34:37.404Z,63.05
2019-03-17T15:37:08.665Z,63.23
2019-03-17T15:39:39.512Z,62.88
2019-03-17T15:42:10.882Z,62.97
2019-03-17T15:44:42.561Z,63.19
2019-03-17T15:47:13.786Z,63.46
2019-03-17T15:49:46.436Z,63.88
2019-03-17T15:52:18.241Z,64.15
2019-03-17T15:54:49.146Z,64.70
2019-03-17T15:57:21.070Z,64.29
2019-03-17T15:59:51.732Z,64.19
2019-03-17T16:02:22.850Z,63.77
2019-03-17T16:04:53.728Z,63.58
2019-03-17T16:07:24.776Z,63.77
2019-03-17T16:09:55.716Z,63.80
2019-03-17T16:12:26.735Z,63.56
2019-03-17T16:14:57.930Z,63.39
2019-03-17T16:17:30.252Z,63.14
2019-03-17T16:20:02.180Z,62.96
2019-03-17T16:22:33.845Z,62.79
2019-03-17T16:25:05.133Z,62.84
2019-03-17T16:27:36.163Z,62.75
2019-03-17T16:30:09.585Z,62.67
2019-03-17T16:32:41.724Z,62.40
2019-03-17T16:35:13.787Z,62.18
2019-03-17T16:37:45.331Z,62.28
2019-03-17T16:40:18.642Z,62.01
2019-03-17T16:42:49.733Z,61.88
2019-03-17T16:45:21.182Z,61.79
2019-03-17T16:47:53.573Z,61.69
2019-03-17T16:50:25.004Z,61.80
2019-03-17T16:52:56.199Z,61.67
2019-03-17T16:55:27.544Z,61.86
2019-03-17T16:58:00.065Z,61.95
2019-03-17T17:00:31.116Z,62.06
2019-03-17T17:03:02.143Z,62.04
2019-03-17T17:05:35.104Z,61.99
2019-03-17T17:08:05.657Z,62.07
2019-03-17T17:10:38.976Z,62.06
2019-03-17T17:13:09.782Z,62.33
2019-03-17T17:15:40.724Z,62.38
2019-03-17T17:18:12.644Z,62.77
2019-03-17T17:20:43.583Z,62.33
2019-03-17T17:23:14.482Z,62.33
2019-03-17T17:25:45.681Z,62.45
2019-03-17T17:28:17.812Z,62.78
2019-03-17T17:30:48.522Z,62.63
2019-03-17T17:33:19.276Z,62.61
2019-03-17T17:35:50.293Z,62.58
2019-03-17T17:38:41.703Z,62.58
2019-03-17T17:41:12.673Z,62.69
2019-03-17T17:43:43.231Z,62.62
2019-03-17T17:46:17.523Z,62.33
2019-03-17T17:48:47.723Z,62.31
2019-03-17T17:51:18.487Z,62.31
2019-03-17T17:53:49.188Z,62.55
2019-03-17T17:56:20.844Z,62.57
2019-03-17T17:58:51.165Z,62.61
2019-03-17T18:01:23.989Z,62.87
2019-03-17T18:03:54.467Z,62.88
2019-03-17T18:06:24.781Z,62.99
2019-03-17T18:08:56.843Z,62.53
2019-03-17T18:11:28.771Z,63.43
2019-03-17T18:14:02.724Z,63.22
2019-03-17T18:16:34.383Z,63.22
2019-03-17T18:19:05.955Z,63.57
2019-03-17T18:21:37.123Z,63.51
2019-03-17T18:24:08.262Z,63.48
2019-03-17T18:26:39.124Z,63.54
2019-03-17T18:29:09.975Z,63.54
2019-03-17T18:31:40.636Z,63.36
2019-03-17T18:34:11.382Z,63.58
2019-03-17T18:36:42.182Z,63.95
2019-03-17T18:39:12.888Z,64.14
2019-03-17T18:41:43.580Z,64.08
2019-03-17T18:44:14.147Z,64.14
2019-03-17T18:46:44.930Z,64.14
2019-03-17T18:49:15.583Z,64.48
2019-03-17T18:51:46.289Z,64.79
2019-03-17T18:54:16.996Z,65.27
2019-03-17T18:56:47.693Z,65.06
2019-03-17T18:59:19.343Z,65.06
2019-03-17T19:01:49.940Z,64.82
2019-03-17T19:04:20.580Z,64.82
2019-03-17T19:06:51.446Z,66.18
2019-03-17T19:09:22.304Z,66.18
2019-03-17T19:11:53.303Z,66.64
2019-03-17T19:14:25.078Z,66.64
2019-03-17T19:16:55.699Z,66.81
2019-03-17T19:19:26.640Z,67.07
2019-03-17T19:21:57.811Z,66.92
2019-03-17T19:24:28.753Z,66.92
2019-03-17T19:26:59.774Z,66.58
2019-03-17T19:29:30.741Z,66.24
2019-03-17T19:32:02.624Z,66.37
2019-03-17T19:34:33.169Z,66.37
2019-03-17T19:37:03.962Z,66.39
2019-03-17T19:39:34.533Z,66.28
2019-03-17T19:42:05.073Z,66.64
2019-03-17T19:44:37.549Z,66.80
2019-03-17T19:47:08.828Z,67.26
2019-03-17T19:49:39.762Z,67.26
2019-03-17T19:52:10.667Z,67.62
2019-03-17T19:54:41.256Z,67.81
2019-03-17T19:57:12.705Z,67.84
2019-03-17T19:59:44.022Z,67.71
2019-03-17T20:02:15.316Z,68.22
2019-03-17T20:04:47.843Z,68.17
2019-03-17T20:07:22.061Z,68.17
2019-03-17T20:09:55.326Z,67.74
2019-03-17T20:12:46.622Z,67.68
2019-03-17T20:15:27.438Z,67.68
2019-03-17T20:18:01.410Z,68.41
2019-03-17T20:20:37.029Z,68.41
2019-03-17T20:23:11.721Z,68.04
2019-03-17T20:25:45.666Z,68.37
2019-03-17T20:28:18.455Z,68.07
2019-03-17T20:30:51.379Z,68.17
2019-03-17T20:33:25.507Z,67.83
2019-03-17T20:35:56.537Z,67.21
2019-03-17T20:38:48.076Z,67.21
2019-03-17T20:41:19.236Z,67.85
2019-03-17T20:43:52.565Z,67.85
2019-03-17T20:46:25.791Z,68.41
2019-03-17T20:49:19.634Z,68.41
2019-03-17T20:51:52.013Z,68.27
2019-03-17T20:54:43.053Z,68.08
2019-03-17T20:57:16.236Z,68.08
2019-03-17T20:59:49.392Z,68.67
2019-03-17T21:02:23.375Z,69.24
2019-03-17T21:04:54.612Z,69.24
2019-03-17T21:07:47.502Z,69.19
2019-03-17T21:10:18.778Z,69.06
2019-03-17T21:12:49.631Z,68.40
2019-03-17T21:15:20.229Z,68.78
2019-03-17T21:17:52.868Z,68.64
2019-03-17T21:20:23.743Z,69.24
2019-03-17T21:22:54.514Z,69.24
2019-03-17T21:25:25.014Z,69.28
2019-03-17T21:27:55.824Z,69.31
2019-03-17T21:30:26.628Z,69.28
2019-03-17T21:32:58.460Z,69.28
2019-03-17T21:35:29.087Z,68.60
2019-03-17T21:38:01.024Z,68.60
2019-03-17T21:40:31.812Z,69.08
2019-03-17T21:43:02.654Z,69.08
2019-03-17T21:45:33.459Z,69.43
2019-03-17T21:48:07.142Z,70.26
2019-03-17T21:50:37.775Z,70.33
2019-03-17T21:53:09.765Z,70.33
2019-03-17T21:55:40.776Z,70.48
2019-03-17T21:58:11.589Z,70.37
2019-03-17T22:00:43.028Z,70.78
2019-03-17T22:03:19.137Z,70.69
2019-03-17T22:05:50.084Z,71.09
2019-03-17T22:08:21.157Z,70.78
2019-03-17T22:10:54.052Z,70.64
2019-03-17T22:13:25.063Z,70.32
2019-03-17T22:15:56.727Z,70.32
2019-03-17T22:18:27.509Z,70.63
2019-03-17T22:20:58.025Z,71.45
2019-03-17T22:23:47.302Z,71.75
2019-03-17T22:26:18.963Z,71.57
2019-03-17T22:28:49.772Z,71.88
2019-03-17T22:31:20.887Z,73.01
2019-03-17T22:33:51.668Z,72.52
2019-03-17T22:36:22.987Z,72.52
2019-03-17T22:38:53.988Z,72.36
2019-03-17T22:41:24.778Z,72.17
2019-03-17T22:43:55.496Z,71.69
2019-03-17T22:46:26.377Z,72.21
2019-03-17T22:48:57.052Z,72.71
2019-03-17T22:51:28.021Z,72.84
2019-03-17T22:53:58.945Z,72.18
2019-03-17T22:56:29.598Z,72.46
2019-03-17T22:59:00.231Z,72.46
2019-03-17T23:01:31.243Z,73.37
2019-03-17T23:04:02.009Z,73.28
2019-03-17T23:06:32.866Z,73.28
2019-03-17T23:09:03.551Z,72.86
2019-03-17T23:11:34.285Z,73.03
2019-03-17T23:14:05.071Z,74.58
2019-03-17T23:16:35.828Z,75.24
2019-03-17T23:19:07.976Z,74.59
2019-03-17T23:21:38.710Z,74.21
2019-03-17T23:24:09.448Z,74.82
2019-03-17T23:26:41.271Z,74.27
2019-03-17T23:29:12.512Z,73.60
2019-03-17T23:31:43.432Z,73.22
2019-03-17T23:34:15.561Z,73.17
2019-03-17T23:36:46.075Z,73.16
2019-03-17T23:39:16.868Z,74.17
2019-03-17T23:41:48.564Z,74.17
2019-03-17T23:44:19.629Z,73.96
2019-03-17T23:46:50.697Z,73.87
2019-03-17T23:49:21.506Z,73.97
2019-03-17T23:51:52.260Z,74.38
2019-03-17T23:54:22.968Z,74.75
2019-03-17T23:56:55.711Z,74.62
2019-03-17T23:59:26.574Z,74.66
